Time;durP1;ratioP1;P1;durP2;ratioP2;P2;SDS_P1;SDS_P2;PMS_P1;PMS_P2;Temp;Humidity;BMP_temperature;BMP_pressure;BME280_temperature;BME280_humidity;BME280_pressure;Samples;Min_cycle;Max_cycle;Signal;HPM_P1;HPM_P2
2023/06/07 00:03:26;;;;;;;3.92;2.47;;;;;;;15.54;nan;99911.66;12219576;19;20094;-82
2023/06/07 00:07:29;;;;;;;5.30;2.20;;;;;;;15.53;86.39;99906.38;12221596;19;20010;-82
2023/06/07 00:11:30;;;;;;;4.05;2.38;;;;;;;15.51;86.70;99903.88;12196012;19;20046;-82
2023/06/07 00:15:32;;;;;;;5.20;2.47;;;;;;;15.52;86.90;99905.53;12215464;19;20014;-81
2023/06/07 00:19:34;;;;;;;5.03;2.38;;;;;;;15.53;87.17;99909.16;12221228;19;20029;-81
2023/06/07 00:23:36;;;;;;;5.55;2.20;;;;;;;15.57;87.69;99901.94;12200676;19;20002;-81
2023/06/07 00:27:37;;;;;;;4.20;2.17;;;;;;;15.62;87.89;99911.09;12220232;19;20346;-82
2023/06/07 00:31:39;;;;;;;4.95;2.17;;;;;;;15.66;87.42;99900.25;12222325;19;20066;-82
2023/06/07 00:35:43;;;;;;;5.05;2.38;;;;;;;15.68;87.85;99898.06;12198815;19;20023;-82
2023/06/07 00:39:44;;;;;;;4.35;2.30;;;;;;;15.71;87.89;99894.72;12220036;19;20006;-82
2023/06/07 00:43:47;;;;;;;4.15;2.20;;;;;;;15.75;88.29;99892.19;12220252;19;20030;-82
2023/06/07 00:47:49;;;;;;;;;;;;;;;15.80;88.12;99892.19;12200250;19;20014;-82
2023/06/07 00:51:51;;;;;;;4.53;2.03;;;;;;;15.87;87.48;99887.16;12219857;19;19946;-82
2023/06/07 00:55:53;;;;;;;3.72;2.00;;;;;;;15.94;87.74;99891.31;12208868;19;20011;-83
2023/06/07 00:59:55;;;;;;;2.87;2.03;;;;;;;16.01;87.77;99887.41;12220433;19;20139;-82
2023/06/07 01:03:57;;;;;;;4.13;2.20;;;;;;;16.06;88.13;99892.91;12214125;19;20024;-81
2023/06/07 01:08:00;;;;;;;3.33;2.15;;;;;;;16.09;87.94;99886.78;12193552;19;20478;-81
2023/06/07 01:12:03;;;;;;;;;;;;;;;16.09;88.97;99879.31;12216377;19;20415;-81
2023/06/07 01:16:06;;;;;;;;;;;;;;;16.08;88.87;99872.06;12216588;19;19911;-82
2023/06/07 01:20:20;;;;;;;7.22;2.30;;;;;;;16.08;88.42;99879.56;12193988;19;19911;-82
2023/06/07 01:24:22;;;;;;;5.00;2.20;;;;;;;16.06;88.94;99876.22;12218035;19;20017;-82
2023/06/07 01:28:30;;;;;;;4.07;2.13;;;;;;;16.03;89.66;99882.38;12212399;19;20010;-82
2023/06/07 01:32:33;;;;;;;5.00;2.58;;;;;;;16.01;89.87;99876.28;12193086;19;20382;-82
2023/06/07 01:36:35;;;;;;;3.58;2.22;;;;;;;15.98;90.54;99877.69;12216274;19;20011;-82
2023/06/07 01:40:38;;;;;;;4.05;2.28;;;;;;;16.02;90.87;99872.38;12218917;19;20018;-81
2023/06/07 01:44:40;;;;;;;3.83;2.47;;;;;;;16.01;91.28;99867.94;12200050;19;20046;-81
2023/06/07 01:48:42;;;;;;;;;;;;;;;15.95;92.08;99856.00;12220719;19;20443;-83
2023/06/07 01:52:45;;;;;;;3.78;2.50;;;;;;;15.93;91.93;99872.94;12216631;19;20322;-82
2023/06/07 01:57:15;;;;;;;3.97;2.47;;;;;;;15.96;92.81;99854.88;12199623;19;20027;-82
2023/06/07 02:01:42;;;;;;;6.85;2.90;;;;;;;15.93;93.33;99859.06;12214926;19;20019;-81
2023/06/07 02:05:50;;;;;;;5.13;2.40;;;;;;;15.91;93.79;99857.69;12189788;19;20011;-81
2023/06/07 02:09:53;;;;;;;4.03;2.42;;;;;;;15.86;93.78;99860.50;12216128;19;20408;-82
2023/06/07 02:13:55;;;;;;;4.38;2.75;;;;;;;15.80;94.13;99856.91;12192274;19;19998;-82
2023/06/07 02:18:00;;;;;;;3.42;2.20;;;;;;;15.70;94.24;99849.44;12215625;19;20468;-82
2023/06/07 02:22:03;;;;;;;4.85;2.20;;;;;;;15.58;94.50;99864.69;12214884;19;20024;-82
2023/06/07 02:26:07;;;;;;;4.20;2.80;;;;;;;15.42;95.34;99855.59;12193797;19;20025;-82
2023/06/07 02:30:10;;;;;;;3.70;2.50;;;;;;;15.29;96.58;99862.56;12215730;19;20084;-82
2023/06/07 02:34:12;;;;;;;5.10;2.88;;;;;;;15.18;97.30;99858.13;12214310;19;20377;-82
2023/06/07 02:38:15;;;;;;;5.07;2.80;;;;;;;15.04;99.04;99864.22;12193490;19;20014;-81
2023/06/07 02:42:17;;;;;;;4.65;2.85;;;;;;;14.90;100.00;99857.59;12213875;19;20011;-82
2023/06/07 02:46:19;;;;;;;4.28;2.45;;;;;;;14.82;100.00;99855.38;12215027;19;20010;-82
2023/06/07 02:50:24;;;;;;;4.90;2.92;;;;;;;14.71;100.00;99851.75;12189974;19;20645;-81
2023/06/07 02:54:28;;;;;;;3.45;2.45;;;;;;;14.63;100.00;99854.22;12212232;19;20003;-81
2023/06/07 02:58:31;;;;;;;5.45;2.80;;;;;;;14.57;100.00;99857.00;12216600;19;20353;-82
2023/06/07 03:02:33;;;;;;;7.68;3.28;;;;;;;14.57;100.00;99856.16;12191320;19;20018;-81
2023/06/07 03:06:40;;;;;;;8.67;2.90;;;;;;;14.60;100.00;99863.91;12236820;19;20014;-81
2023/06/07 03:10:54;;;;;;;5.78;3.30;;;;;;;14.62;100.00;99858.13;12217059;19;20086;-81
2023/06/07 03:15:03;;;;;;;4.20;2.80;;;;;;;14.65;100.00;99861.16;12233740;19;20540;-83
2023/06/07 03:19:06;;;;;;;5.15;2.63;;;;;;;14.68;100.00;99865.34;12231105;19;20014;-82
2023/06/07 03:23:08;;;;;;;5.53;3.00;;;;;;;14.66;100.00;99865.59;12209583;19;20007;-82
2023/06/07 03:27:11;;;;;;;4.97;3.03;;;;;;;14.61;100.00;99864.78;12227703;19;20024;-81
2023/06/07 03:31:15;;;;;;;6.95;3.38;;;;;;;14.51;100.00;99874.72;12227414;19;20034;-82
2023/06/07 03:35:24;;;;;;;5.45;2.80;;;;;;;14.39;100.00;99867.75;12203381;19;20033;-81
2023/06/07 03:39:27;;;;;;;4.50;2.87;;;;;;;14.30;100.00;99873.81;12227943;19;20010;-81
2023/06/07 03:43:29;;;;;;;5.35;3.15;;;;;;;14.29;100.00;99872.16;12228522;19;20032;-82
2023/06/07 03:47:30;;;;;;;4.88;3.42;;;;;;;14.24;100.00;99883.22;12207528;19;20010;-81
2023/06/07 03:51:32;;;;;;;4.47;2.95;;;;;;;14.25;100.00;99886.84;12228265;19;20382;-82
2023/06/07 03:55:41;;;;;;;5.43;3.47;;;;;;;14.28;100.00;99891.84;12227105;19;20021;-82
2023/06/07 03:59:44;;;;;;;5.43;3.45;;;;;;;14.33;100.00;99891.84;12213193;19;20014;-82
2023/06/07 04:03:48;;;;;;;4.82;2.58;;;;;;;14.38;100.00;99894.63;12227675;19;20010;-82
2023/06/07 04:07:50;;;;;;;4.97;2.90;;;;;;;14.43;100.00;99891.06;12229177;19;20475;-82
2023/06/07 04:11:52;;;;;;;4.10;2.75;;;;;;;14.46;100.00;99885.78;12207439;19;20224;-82
2023/06/07 04:15:55;;;;;;;6.85;2.67;;;;;;;14.53;100.00;99882.78;12222526;19;20018;-82
2023/06/07 04:19:57;;;;;;;3.90;2.73;;;;;;;14.62;100.00;99885.84;12211953;19;20017;-82
2023/06/07 04:24:00;;;;;;;6.13;3.03;;;;;;;14.75;100.00;99882.53;12231337;19;20022;-82
2023/06/07 04:28:03;;;;;;;6.15;3.03;;;;;;;14.89;100.00;99891.16;12229632;19;20007;-82
2023/06/07 04:32:09;;;;;;;4.00;3.03;;;;;;;15.08;100.00;99883.94;12201495;19;20015;-82
2023/06/07 04:36:18;;;;;;;5.43;3.00;;;;;;;15.35;100.00;99883.66;12222449;19;20002;-81
2023/06/07 04:40:23;;;;;;;5.32;2.63;;;;;;;15.62;100.00;99885.28;12223599;19;20074;-82
2023/06/07 04:44:28;;;;;;;5.32;2.80;;;;;;;15.82;100.00;99888.00;12199427;19;20017;-82
2023/06/07 04:48:43;;;;;;;5.50;2.88;;;;;;;15.97;100.00;99889.06;12224066;19;20007;-81
2023/06/07 04:52:49;;;;;;;4.93;2.83;;;;;;;16.08;100.00;99885.97;12225498;19;20009;-83
2023/06/07 04:56:52;;;;;;;4.07;2.85;;;;;;;16.16;100.00;99887.31;12197970;19;20030;-81
2023/06/07 05:00:57;;;;;;;4.80;3.03;;;;;;;16.25;100.00;99890.34;12221112;19;20010;-83
2023/06/07 05:04:59;;;;;;;5.30;3.78;;;;;;;16.40;100.00;99887.47;12186610;19;20021;-84
2023/06/07 05:09:05;;;;;;;4.38;2.70;;;;;;;16.59;100.00;99893.19;12193268;19;20014;-82
2023/06/07 05:13:08;;;;;;;5.22;2.80;;;;;;;16.72;100.00;99888.97;12218282;19;20018;-84
2023/06/07 05:17:16;;;;;;;4.80;3.22;;;;;;;16.78;100.00;99883.09;12198417;19;20023;-84
2023/06/07 05:21:20;;;;;;;5.43;2.83;;;;;;;16.87;100.00;99888.88;12220251;19;20011;-82
2023/06/07 05:25:23;;;;;;;4.68;2.83;;;;;;;16.98;100.00;99887.66;12219165;19;20010;-84
2023/06/07 05:29:29;;;;;;;10.93;2.78;;;;;;;17.11;100.00;99883.41;12194758;19;20030;-83
2023/06/07 05:33:31;;;;;;;6.07;3.00;;;;;;;17.26;100.00;99888.81;12218884;19;20014;-83
2023/06/07 05:37:35;;;;;;;4.45;2.83;;;;;;;17.42;100.00;99894.25;12220960;19;20439;-82
2023/06/07 05:41:38;;;;;;;4.95;3.17;;;;;;;17.63;100.00;99892.09;12196715;19;20003;-83
2023/06/07 05:45:41;;;;;;;5.22;3.25;;;;;;;17.86;100.00;99896.88;12218248;19;20006;-83
2023/06/07 05:49:45;;;;;;;7.20;3.47;;;;;;;18.18;98.76;99893.44;12219361;19;20014;-82
2023/06/07 05:53:47;;;;;;;3.88;2.78;;;;;;;18.53;97.93;99891.31;12196793;19;20712;-83
2023/06/07 05:57:51;;;;;;;7.50;3.10;;;;;;;18.87;93.40;99890.25;12223230;19;20018;-83
2023/06/07 06:01:52;;;;;;;6.20;3.17;;;;;;;19.15;91.13;99891.19;12210446;19;20003;-84
2023/06/07 06:05:57;;;;;;;6.38;3.05;;;;;;;19.43;88.88;99897.72;12215671;19;20029;-84
2023/06/07 06:09:58;;;;;;;6.45;3.35;;;;;;;19.75;85.25;99899.66;12213705;19;20493;-83
2023/06/07 06:14:01;;;;;;;4.82;3.42;;;;;;;19.89;83.25;99902.44;12197337;19;20006;-84
2023/06/07 06:18:03;;;;;;;8.23;3.17;;;;;;;19.83;83.05;99892.50;12216595;19;20018;-84
2023/06/07 06:22:05;;;;;;;8.27;3.63;;;;;;;19.84;81.56;99893.34;12218204;19;20007;-84
2023/06/07 06:26:08;;;;;;;5.60;3.60;;;;;;;19.92;81.87;99895.41;12207057;19;20006;-85
2023/06/07 06:30:11;;;;;;;5.53;3.15;;;;;;;19.98;81.16;99892.19;12218577;19;20014;-84
2023/06/07 06:34:13;;;;;;;4.72;3.00;;;;;;;19.97;79.29;99903.72;12216613;19;20007;-84
2023/06/07 06:38:17;;;;;;;5.82;2.85;;;;;;;19.99;78.85;99901.44;12197979;19;20051;-84
2023/06/07 06:42:20;;;;;;;6.20;3.28;;;;;;;20.01;79.39;99894.38;12227920;19;20022;-83
2023/06/07 06:46:54;;;;;;;6.15;3.22;;;;;;;20.06;77.29;99901.03;12227194;19;20029;-83
2023/06/07 06:50:56;;;;;;;4.32;2.95;;;;;;;20.12;75.10;99903.41;12265111;19;20048;-81
2023/06/07 06:54:58;;;;;;;5.87;3.03;;;;;;;20.19;73.97;99902.97;12246788;19;20014;-84
2023/06/07 06:59:01;;;;;;;12.10;3.50;;;;;;;20.33;72.66;99906.59;12228943;19;20013;-83
2023/06/07 07:03:07;;;;;;;5.40;3.13;;;;;;;20.44;70.37;99902.44;12245747;19;20511;-84
2023/06/07 07:07:09;;;;;;;5.00;3.37;;;;;;;20.60;70.09;99904.94;12244287;19;20010;-84
2023/06/07 07:11:12;;;;;;;6.47;3.35;;;;;;;20.72;68.17;99908.00;12221743;19;20016;-85
2023/06/07 07:15:15;;;;;;;8.25;3.60;;;;;;;20.77;68.37;99905.09;12244035;19;21029;-84
2023/06/07 07:19:17;;;;;;;4.90;3.03;;;;;;;20.82;68.76;99907.78;12237250;19;20002;-82
2023/06/07 07:23:20;;;;;;;6.95;3.42;;;;;;;20.81;67.27;99914.50;12219538;19;20018;-84
2023/06/07 07:27:24;;;;;;;7.20;3.40;;;;;;;20.98;66.67;99915.81;12238632;19;20007;-83
2023/06/07 07:31:29;;;;;;;6.80;3.22;;;;;;;21.23;66.35;99906.78;12237174;19;20013;-84
2023/06/07 07:35:31;;;;;;;5.75;3.67;;;;;;;21.40;66.46;99914.50;12214632;19;20006;-82
2023/06/07 07:39:33;;;;;;;5.57;3.37;;;;;;;21.58;67.08;99923.84;12236491;19;20076;-81
2023/06/07 07:43:36;;;;;;;5.78;3.65;;;;;;;21.91;66.75;99931.94;12235080;19;20024;-83
2023/06/07 07:47:38;;;;;;;6.30;3.65;;;;;;;22.32;64.04;99930.84;12217181;19;20356;-81
2023/06/07 07:51:40;;;;;;;7.27;3.27;;;;;;;22.61;61.73;99928.25;12237094;19;20048;-82
2023/06/07 07:55:43;;;;;;;10.48;3.90;;;;;;;22.94;60.12;99927.81;12235458;19;20017;-82
2023/06/07 07:59:45;;;;;;;4.40;3.20;;;;;;;23.10;59.68;99922.53;12217563;19;20360;-85
2023/06/07 08:03:48;;;;;;;6.82;4.03;;;;;;;23.05;59.71;99931.94;12239245;19;20018;-82
2023/06/07 08:07:50;;;;;;;;;;;;;;;23.06;60.02;99939.25;12235446;19;20107;-82
2023/06/07 08:11:51;;;;;;;6.75;4.18;;;;;;;23.27;58.56;99936.59;12213725;19;19935;-82
2023/06/07 08:15:54;;;;;;;6.25;4.20;;;;;;;23.30;57.62;99923.88;12230720;19;20472;-82
2023/06/07 08:19:55;;;;;;;8.13;4.18;;;;;;;23.35;57.30;99935.78;12205151;19;20007;-83
2023/06/07 08:23:57;;;;;;;6.13;3.95;;;;;;;23.29;55.46;99930.63;12229743;19;20006;-81
2023/06/07 08:27:59;;;;;;;4.80;3.90;;;;;;;23.32;56.08;99929.97;12229359;19;20010;-82
2023/06/07 08:32:01;;;;;;;7.40;4.60;;;;;;;23.31;57.08;99929.13;12210378;19;20243;-83
2023/06/07 08:36:05;;;;;;;6.00;4.35;;;;;;;23.41;56.39;99928.00;12226650;19;20011;-84
2023/06/07 08:40:09;;;;;;;5.43;3.70;;;;;;;23.60;56.04;99922.81;12250685;19;20018;-82
2023/06/07 08:44:11;;;;;;;7.85;4.13;;;;;;;23.72;55.52;99927.78;12229209;19;20011;-83
2023/06/07 08:48:13;;;;;;;8.57;4.10;;;;;;;23.93;54.01;99924.25;12246088;19;20095;-80
2023/06/07 08:52:18;;;;;;;6.45;4.22;;;;;;;23.96;54.62;99921.56;12244825;19;20294;-87
2023/06/07 08:56:24;;;;;;;5.10;3.97;;;;;;;24.20;53.26;99928.59;12217956;19;20084;-84
2023/06/07 09:00:27;;;;;;;8.48;4.72;;;;;;;24.43;53.25;99924.38;12242513;19;20022;-82
2023/06/07 09:04:30;;;;;;;7.38;5.28;;;;;;;24.63;51.82;99928.41;12238526;19;20019;-82
2023/06/07 09:08:32;;;;;;;8.23;5.22;;;;;;;24.32;52.32;99926.69;12210850;19;20074;-81
2023/06/07 09:12:35;;;;;;;8.45;5.32;;;;;;;24.52;52.31;99921.50;12236682;19;20022;-83
2023/06/07 09:16:54;;;;;;;9.05;5.90;;;;;;;24.52;52.59;99922.31;12236526;19;20014;-84
2023/06/07 09:20:57;;;;;;;6.55;5.60;;;;;;;24.47;51.89;99928.13;12212544;19;20375;-83
2023/06/07 09:25:07;;;;;;;8.07;5.67;;;;;;;24.50;51.02;99924.63;12237323;19;20042;-84
2023/06/07 09:29:09;;;;;;;7.15;5.53;;;;;;;24.94;50.96;99925.19;12221294;19;20018;-83
2023/06/07 09:33:24;;;;;;;;;;;;;;;25.08;49.01;99922.09;12248687;19;20014;-84
2023/06/07 09:37:40;;;;;;;7.38;5.60;;;;;;;25.33;49.74;99925.03;12240017;19;19925;-83
2023/06/07 09:41:42;;;;;;;6.95;5.50;;;;;;;25.57;48.96;99924.31;12216735;19;20022;-84
2023/06/07 09:45:56;;;;;;;9.07;6.13;;;;;;;25.67;47.81;99918.22;12234888;19;20091;-84
2023/06/07 09:50:10;;;;;;;9.50;6.38;;;;;;;26.06;47.10;99918.81;12229385;19;20007;-84
2023/06/07 09:54:12;;;;;;;8.82;6.00;;;;;;;26.31;46.23;99922.47;12247398;19;20010;-83
2023/06/07 09:58:23;;;;;;;9.13;5.53;;;;;;;26.41;45.88;99923.97;12246939;19;20038;-84
2023/06/07 10:02:29;;;;;;;9.05;6.00;;;;;;;26.31;45.36;99928.94;12221696;19;20054;-85
2023/06/07 10:06:32;;;;;;;8.32;6.50;;;;;;;26.25;45.07;99923.88;12237609;19;20010;-84
2023/06/07 10:10:34;;;;;;;;;;;;;;;26.12;45.98;99917.41;12239701;19;20006;-84
2023/06/07 10:14:40;;;;;;;7.22;5.53;;;;;;;26.02;46.58;99915.03;12215285;19;19914;-84
2023/06/07 10:18:42;;;;;;;5.80;4.95;;;;;;;25.90;46.55;99913.81;12241742;19;20463;-83
2023/06/07 10:22:47;;;;;;;7.80;4.38;;;;;;;25.89;47.08;99909.38;12242086;19;20011;-83
2023/06/07 10:27:03;;;;;;;8.18;4.90;;;;;;;26.26;46.00;99911.38;12223800;19;20017;-83
2023/06/07 10:31:09;;;;;;;8.98;4.95;;;;;;;26.46;45.82;99906.78;12243371;19;20017;-83
2023/06/07 10:35:11;;;;;;;6.55;5.28;;;;;;;26.46;45.13;99904.78;12219587;19;20094;-82
2023/06/07 10:39:17;;;;;;;7.65;4.93;;;;;;;26.60;45.33;99901.63;12242004;19;20163;-83
2023/06/07 10:43:20;;;;;;;10.13;5.20;;;;;;;27.04;44.13;99911.06;12245861;19;20043;-82
2023/06/07 10:47:22;;;;;;;4.43;3.97;;;;;;;27.03;44.28;99908.59;12221754;19;20025;-83
2023/06/07 10:51:53;;;;;;;7.05;4.88;;;;;;;27.07;44.04;99901.06;12243271;19;20003;-83
2023/06/07 10:55:55;;;;;;;5.68;4.53;;;;;;;26.82;43.90;99903.94;12209057;19;20011;-83
2023/06/07 11:00:29;;;;;;;7.90;4.78;;;;;;;27.21;43.56;99898.66;12241209;19;20106;-83
2023/06/07 11:04:37;;;;;;;9.43;4.97;;;;;;;27.31;43.73;99900.16;12234606;19;20479;-84
2023/06/07 11:08:40;;;;;;;6.53;4.82;;;;;;;27.23;44.24;99887.81;12217259;19;20009;-84
2023/06/07 11:12:45;;;;;;;5.72;4.72;;;;;;;27.58;42.99;99901.31;12233379;19;20015;-84
2023/06/07 11:16:47;;;;;;;7.32;4.88;;;;;;;27.67;42.93;99885.00;12237520;19;20376;-83
2023/06/07 11:20:51;;;;;;;;;;;;;;;27.99;42.32;99882.22;12215334;19;20007;-82
2023/06/07 11:25:12;;;;;;;6.78;4.40;;;;;;;28.46;39.86;99880.53;12233664;19;20366;-85
2023/06/07 11:29:15;;;;;;;6.38;4.63;;;;;;;28.32;39.76;99869.66;12214248;19;20030;-83
2023/06/07 11:33:20;;;;;;;7.97;5.22;;;;;;;28.47;39.56;99868.84;12233012;19;20019;-83
2023/06/07 11:37:24;;;;;;;5.65;5.05;;;;;;;28.09;40.98;99878.81;12234644;19;20010;-83
2023/06/07 11:41:28;;;;;;;6.25;4.65;;;;;;;27.61;42.82;99865.81;12216469;19;20023;-83
2023/06/07 11:45:33;;;;;;;5.25;4.75;;;;;;;27.47;42.38;99857.75;12232896;19;20018;-85
2023/06/07 11:49:38;;;;;;;7.07;5.43;;;;;;;27.62;41.88;99848.44;12232243;19;20790;-84
2023/06/07 11:53:41;;;;;;;5.95;4.45;;;;;;;27.56;42.51;99847.06;12212481;19;20011;-84
2023/06/07 11:57:47;;;;;;;6.13;4.97;;;;;;;28.30;41.07;99853.03;12234208;19;20003;-83
2023/06/07 12:01:53;;;;;;;5.82;5.05;;;;;;;28.57;40.13;99848.41;12235677;19;20038;-82
2023/06/07 12:05:56;;;;;;;5.60;5.00;;;;;;;28.67;41.08;99841.31;12208554;19;20120;-83
2023/06/07 12:09:58;;;;;;;6.43;4.68;;;;;;;28.58;40.45;99835.06;12231232;19;20163;-82
2023/06/07 12:14:03;;;;;;;;;;;;;;;28.49;41.15;99838.09;12204856;19;20711;-83
2023/06/07 12:18:05;;;;;;;5.03;4.40;;;;;;;29.35;39.14;99831.41;12222650;19;19907;-82
2023/06/07 12:22:08;;;;;;;5.03;4.40;;;;;;;28.71;38.48;99821.59;12221676;19;20017;-83
2023/06/07 12:26:11;;;;;;;5.50;4.60;;;;;;;29.23;38.96;99820.25;12206219;19;20007;-83
2023/06/07 12:30:13;;;;;;;5.70;4.88;;;;;;;29.30;37.49;99821.22;12230594;19;20054;-82
2023/06/07 12:34:17;;;;;;;5.50;4.72;;;;;;;30.09;36.84;99813.25;12229312;19;20014;-83
2023/06/07 12:38:20;;;;;;;4.82;4.28;;;;;;;30.51;36.10;99804.56;12205790;19;20464;-84
2023/06/07 12:42:22;;;;;;;3.95;3.55;;;;;;;32.21;32.95;99801.13;12227095;19;20010;-83
2023/06/07 12:46:24;;;;;;;5.68;4.45;;;;;;;31.75;31.81;99789.34;12227472;19;20081;-84
2023/06/07 12:50:28;;;;;;;5.00;4.30;;;;;;;32.36;31.73;99792.66;12214351;19;20500;-85
2023/06/07 12:54:32;;;;;;;5.95;5.15;;;;;;;33.99;29.89;99780.13;12233137;19;20021;-84
2023/06/07 12:58:34;;;;;;;6.13;5.53;;;;;;;34.72;27.76;99775.91;12225783;19;20014;-85
2023/06/07 13:02:36;;;;;;;5.70;5.13;;;;;;;34.70;28.57;99772.66;12206507;19;20017;-84
2023/06/07 13:06:41;;;;;;;5.57;5.00;;;;;;;32.59;30.96;99761.84;12247006;19;20010;-85
2023/06/07 13:10:44;;;;;;;6.45;4.80;;;;;;;31.15;32.13;99767.59;12240894;19;20403;-83
2023/06/07 13:14:46;;;;;;;4.90;4.40;;;;;;;30.48;32.55;99767.56;12205025;19;20013;-83
2023/06/07 13:18:49;;;;;;;4.50;3.90;;;;;;;30.47;33.11;99758.22;12234715;19;20007;-84
2023/06/07 13:22:51;;;;;;;6.65;4.47;;;;;;;32.46;30.61;99749.19;12228463;19;20018;-84
2023/06/07 13:26:54;;;;;;;5.55;5.05;;;;;;;34.18;28.09;99755.19;12210656;19;20014;-86
2023/06/07 13:30:55;;;;;;;6.35;5.40;;;;;;;35.09;26.74;99743.03;12238868;19;20018;-83
2023/06/07 13:34:59;;;;;;;5.90;5.30;;;;;;;35.81;26.77;99732.66;12212364;19;20006;-83
2023/06/07 13:39:01;;;;;;;5.38;4.82;;;;;;;36.94;25.10;99743.28;12232987;19;20447;-86
2023/06/07 13:43:04;;;;;;;4.75;4.22;;;;;;;37.43;23.97;99727.84;12234174;19;20018;-85
2023/06/07 13:47:07;;;;;;;5.22;4.22;;;;;;;37.11;23.48;99727.09;12213869;19;20341;-86
2023/06/07 13:51:11;;;;;;;5.75;5.00;;;;;;;35.78;25.21;99716.31;12231889;19;20051;-84
2023/06/07 13:55:14;;;;;;;7.00;5.00;;;;;;;36.87;24.11;99713.88;12224634;19;20073;-83
2023/06/07 13:59:15;;;;;;;8.32;4.63;;;;;;;38.15;23.38;99704.44;12208238;19;20033;-84
2023/06/07 14:03:19;;;;;;;5.60;5.10;;;;;;;39.09;21.94;99696.28;12227626;19;20014;-85
2023/06/07 14:07:22;;;;;;;4.90;4.45;;;;;;;39.87;20.97;99693.53;12228488;19;20007;-84
2023/06/07 14:11:26;;;;;;;4.25;3.85;;;;;;;40.49;20.90;99684.78;12216742;19;20069;-84
2023/06/07 14:15:28;;;;;;;5.93;4.00;;;;;;;41.09;19.94;99689.19;12245563;19;20011;-86
2023/06/07 14:19:31;;;;;;;5.45;4.10;;;;;;;40.70;19.93;99683.34;12236629;19;20003;-87
2023/06/07 14:23:33;;;;;;;4.85;4.45;;;;;;;40.79;19.90;99676.09;12216096;19;20724;-85
2023/06/07 14:27:35;;;;;;;5.50;4.70;;;;;;;39.92;20.74;99676.91;12231116;19;20033;-88
2023/06/07 14:31:37;;;;;;;4.80;3.85;;;;;;;37.34;22.44;99677.50;12230846;19;20009;-86
2023/06/07 14:35:39;;;;;;;5.43;4.90;;;;;;;36.82;22.78;99657.75;12205678;19;20349;-86
2023/06/07 14:39:40;;;;;;;5.72;4.40;;;;;;;38.61;21.58;99662.38;12233432;19;20011;-85
2023/06/07 14:43:43;;;;;;;5.10;4.60;;;;;;;39.89;20.57;99658.44;12234840;19;20348;-86
2023/06/07 14:47:46;;;;;;;5.80;4.65;;;;;;;40.56;19.39;99663.53;12207776;19;20015;-86
2023/06/07 14:51:48;;;;;;;4.70;4.18;;;;;;;41.21;19.12;99645.81;12230857;19;20011;-85
2023/06/07 14:55:51;;;;;;;4.43;4.03;;;;;;;41.25;19.16;99645.69;12226987;19;20006;-85
2023/06/07 14:59:53;;;;;;;4.95;4.45;;;;;;;41.16;19.28;99639.81;12206617;19;20010;-86
2023/06/07 15:03:54;;;;;;;4.45;3.90;;;;;;;38.35;21.69;99644.81;12232705;19;20019;-86
2023/06/07 15:07:57;;;;;;;6.03;4.07;;;;;;;35.35;23.50;99636.47;12211892;19;20010;-84
2023/06/07 15:12:01;;;;;;;6.35;5.05;;;;;;;33.77;25.50;99647.06;12234124;19;20014;-84
2023/06/07 15:21:56;;;;;;;6.80;4.72;;;;;;;34.68;24.68;99626.28;12126219;19;2004632;-84
2023/06/07 15:26:11;;;;;;;5.90;5.30;;;;;;;33.06;26.27;99616.47;12164524;19;20514;-84
2023/06/07 15:30:13;;;;;;;6.07;5.18;;;;;;;32.21;27.97;99623.56;12216399;19;20006;-84
2023/06/07 15:35:02;;;;;;;6.97;5.10;;;;;;;31.17;29.48;99627.75;12219822;19;20083;-83
2023/06/07 15:39:59;;;;;;;7.72;4.88;;;;;;;29.73;31.99;99634.56;12224429;19;20490;-83
2023/06/07 15:44:59;;;;;;;9.82;5.10;;;;;;;28.40;34.10;99645.56;12209514;19;20029;-84
2023/06/07 15:49:29;;;;;;;8.77;5.32;;;;;;;27.65;35.40;99629.75;12248100;19;20044;-84
2023/06/07 15:59:27;;;;;;;7.65;4.90;;;;;;;26.74;37.18;99618.59;12230728;19;20009;-85
2023/06/07 16:05:19;;;;;;;7.35;4.68;;;;;;;26.61;37.72;99615.03;12254432;19;20018;-84
2023/06/07 16:09:49;;;;;;;6.90;4.80;;;;;;;26.48;38.87;99617.06;12201817;19;20030;-83
2023/06/07 16:13:57;;;;;;;8.63;4.35;;;;;;;26.73;38.46;99611.28;12216842;19;20023;-85
2023/06/07 16:18:06;;;;;;;;;;;;;;;26.91;38.87;99600.47;12201707;19;20058;-85
2023/06/07 16:23:08;;;;;;;7.50;4.82;;;;;;;27.66;39.20;99607.94;12220761;19;19910;-83
2023/06/07 16:27:14;;;;;;;6.88;4.93;;;;;;;28.12;39.15;99611.81;12199856;19;20024;-84
2023/06/07 16:31:16;;;;;;;8.43;5.18;;;;;;;28.03;39.66;99614.06;12229563;19;20352;-83
2023/06/07 16:35:18;;;;;;;5.72;4.72;;;;;;;27.49;40.06;99614.84;12205282;19;20014;-84
2023/06/07 16:39:23;;;;;;;5.72;4.97;;;;;;;26.86;40.99;99615.69;12219249;19;20019;-84
2023/06/07 16:44:18;;;;;;;5.97;5.38;;;;;;;26.14;43.31;99610.84;12223884;19;20002;-84
2023/06/07 16:49:35;;;;;;;7.00;5.15;;;;;;;25.66;44.79;99620.28;12226661;19;20042;-85
2023/06/07 16:54:16;;;;;;;7.85;5.38;;;;;;;25.30;46.64;99619.16;12202965;19;20486;-84
2023/06/07 16:59:19;;;;;;;7.07;4.82;;;;;;;24.97;47.87;99611.59;12167605;19;20463;-84
2023/06/07 17:04:01;;;;;;;5.57;4.75;;;;;;;24.71;48.38;99613.91;12229057;19;20006;-84
2023/06/07 17:08:38;;;;;;;6.47;5.60;;;;;;;24.59;49.52;99614.72;12204294;19;20014;-84
2023/06/07 17:12:50;;;;;;;5.25;4.47;;;;;;;24.62;49.59;99614.00;12226290;19;20073;-84
2023/06/07 17:16:51;;;;;;;5.90;4.68;;;;;;;24.68;50.57;99606.16;12255364;19;20024;-85
2023/06/07 17:20:53;;;;;;;6.60;4.68;;;;;;;24.72;50.35;99596.69;12206240;19;20014;-84
2023/06/07 17:24:56;;;;;;;7.68;5.20;;;;;;;24.83;50.17;99601.84;12226531;19;20010;-83
2023/06/07 17:28:59;;;;;;;7.78;5.13;;;;;;;24.86;50.55;99610.41;12206225;19;20011;-85
2023/06/07 17:33:10;;;;;;;7.80;4.60;;;;;;;24.90;50.60;99613.38;12228470;19;20003;-87
2023/06/07 17:37:14;;;;;;;8.00;5.10;;;;;;;24.89;50.33;99615.34;12222678;19;20021;-83
2023/06/07 17:41:15;;;;;;;6.47;5.03;;;;;;;24.95;50.30;99615.94;12199485;19;20024;-83
2023/06/07 17:45:17;;;;;;;6.20;4.88;;;;;;;24.93;49.94;99607.84;12224083;19;20026;-85
2023/06/07 17:49:19;;;;;;;6.68;5.35;;;;;;;24.87;51.14;99616.91;12221761;19;20014;-84
2023/06/07 17:53:21;;;;;;;8.10;5.25;;;;;;;24.89;50.76;99625.81;12200535;19;20353;-84
2023/06/07 17:57:23;;;;;;;5.80;4.87;;;;;;;24.87;51.29;99617.72;12222277;19;20011;-84
2023/06/07 18:01:25;;;;;;;7.73;5.57;;;;;;;24.77;52.86;99629.41;12222177;19;20010;-86
2023/06/07 18:05:27;;;;;;;7.45;5.30;;;;;;;24.62;52.70;99624.47;12195756;19;20231;-85
2023/06/07 18:09:28;;;;;;;6.93;5.53;;;;;;;24.52;54.21;99628.56;12216244;19;20014;-85
2023/06/07 18:13:30;;;;;;;6.40;5.10;;;;;;;24.47;53.60;99631.59;12210756;19;20334;-85
2023/06/07 18:17:32;;;;;;;7.83;5.80;;;;;;;24.47;53.95;99629.59;12190601;19;20024;-84
2023/06/07 18:21:36;;;;;;;7.50;5.45;;;;;;;24.43;54.09;99634.28;12211296;19;20030;-84
2023/06/07 18:25:38;;;;;;;8.27;5.70;;;;;;;24.39;54.74;99641.75;12212883;19;20006;-84
2023/06/07 18:29:40;;;;;;;6.20;5.00;;;;;;;24.37;55.22;99638.44;12194282;19;20500;-83
2023/06/07 18:33:41;;;;;;;6.70;5.80;;;;;;;24.26;55.46;99640.84;12244541;19;20017;-83
2023/06/07 18:37:44;;;;;;;6.25;5.18;;;;;;;24.04;56.31;99636.44;12240370;19;20018;-82
2023/06/07 18:41:46;;;;;;;7.82;5.72;;;;;;;23.87;57.52;99625.31;12210528;19;20528;-83
2023/06/07 18:45:48;;;;;;;7.65;5.72;;;;;;;23.63;58.97;99632.41;12237225;19;20014;-85
2023/06/07 18:49:50;;;;;;;7.28;5.40;;;;;;;23.41;59.58;99625.13;12242293;19;20430;-85
2023/06/07 18:53:52;;;;;;;7.50;5.75;;;;;;;23.22;60.86;99629.53;12212109;19;20018;-86
2023/06/07 18:57:54;;;;;;;7.45;6.18;;;;;;;23.00;61.85;99625.03;12235630;19;20021;-84
2023/06/07 19:01:57;;;;;;;7.43;5.70;;;;;;;22.74;63.11;99625.91;12208840;19;20023;-85
2023/06/07 19:05:59;;;;;;;7.75;5.93;;;;;;;22.50;64.32;99630.09;12223725;19;20007;-85
2023/06/07 19:10:01;;;;;;;8.77;6.13;;;;;;;22.29;65.98;99631.97;12229043;19;20025;-84
2023/06/07 19:14:04;;;;;;;8.45;6.03;;;;;;;22.10;66.89;99634.25;12203770;19;20106;-86
2023/06/07 19:18:07;;;;;;;9.48;6.00;;;;;;;21.91;67.87;99631.78;12228100;19;20017;-85
2023/06/07 19:22:09;;;;;;;7.70;5.93;;;;;;;21.71;69.14;99641.66;12225025;19;20530;-85